sensor_id;sensor_type;location;lat;lon;timestamp;temperature;humidity
23717;DHT22;22094;52.130;5.598;2024-01-06T00:00:51;6.00;99.90
23717;DHT22;22094;52.130;5.598;2024-01-06T00:03:16;6.20;1.00
23717;DHT22;22094;52.130;5.598;2024-01-06T00:05:42;5.90;43.80
23717;DHT22;22094;52.130;5.598;2024-01-06T00:08:07;5.20;99.90
23717;DHT22;22094;52.130;5.598;2024-01-06T00:10:34;5.20;1.00
23717;DHT22;22094;52.130;5.598;2024-01-06T00:12:59;6.10;1.00
23717;DHT22;22094;52.130;5.598;2024-01-06T00:15:25;5.20;52.50
23717;DHT22;22094;52.130;5.598;2024-01-06T00:17:50;5.90;99.90
23717;DHT22;22094;52.130;5.598;2024-01-06T00:20:18;5.20;99.90
23717;DHT22;22094;52.130;5.598;2024-01-06T00:22:43;5.20;1.00
23717;DHT22;22094;52.130;5.598;2024-01-06T00:25:09;6.10;99.90
23717;DHT22;22094;52.130;5.598;2024-01-06T00:27:35;5.20;99.90
23717;DHT22;22094;52.130;5.598;2024-01-06T00:30:01;5.60;99.90
23717;DHT22;22094;52.130;5.598;2024-01-06T00:32:26;5.40;1.00
23717;DHT22;22094;52.130;5.598;2024-01-06T00:34:52;5.40;99.90
23717;DHT22;22094;52.130;5.598;2024-01-06T00:37:17;5.80;1.00
23717;DHT22;22094;52.130;5.598;2024-01-06T00:39:43;5.00;1.00
23717;DHT22;22094;52.130;5.598;2024-01-06T00:42:08;5.00;99.90
23717;DHT22;22094;52.130;5.598;2024-01-06T00:44:36;5.10;1.00
23717;DHT22;22094;52.130;5.598;2024-01-06T00:47:02;5.10;99.90
23717;DHT22;22094;52.130;5.598;2024-01-06T00:49:28;5.10;1.00
23717;DHT22;22094;52.130;5.598;2024-01-06T00:51:53;5.10;99.90
23717;DHT22;22094;52.130;5.598;2024-01-06T00:54:19;5.00;1.00
23717;DHT22;22094;52.130;5.598;2024-01-06T00:56:44;5.00;99.90
23717;DHT22;22094;52.130;5.598;2024-01-06T00:59:10;4.90;99.90
23717;DHT22;22094;52.130;5.598;2024-01-06T01:01:36;5.00;99.90
23717;DHT22;22094;52.130;5.598;2024-01-06T01:04:01;5.90;99.90
23717;DHT22;22094;52.130;5.598;2024-01-06T01:06:27;4.90;99.90
23717;DHT22;22094;52.130;5.598;2024-01-06T01:08:53;4.90;99.90
23717;DHT22;22094;52.130;5.598;2024-01-06T01:11:19;4.90;1.00
23717;DHT22;22094;52.130;5.598;2024-01-06T01:13:44;4.90;1.00
23717;DHT22;22094;52.130;5.598;2024-01-06T01:16:10;4.80;1.00
23717;DHT22;22094;52.130;5.598;2024-01-06T01:18:35;4.80;1.00
23717;DHT22;22094;52.130;5.598;2024-01-06T01:21:01;4.80;1.00
23717;DHT22;22094;52.130;5.598;2024-01-06T01:23:27;4.80;1.00
23717;DHT22;22094;52.130;5.598;2024-01-06T01:25:53;4.80;1.00
23717;DHT22;22094;52.130;5.598;2024-01-06T01:28:19;4.80;1.00
23717;DHT22;22094;52.130;5.598;2024-01-06T01:30:45;5.50;1.00
23717;DHT22;22094;52.130;5.598;2024-01-06T01:33:10;4.80;1.00
23717;DHT22;22094;52.130;5.598;2024-01-06T01:35:36;4.70;1.00
23717;DHT22;22094;52.130;5.598;2024-01-06T01:38:01;4.80;1.00
23717;DHT22;22094;52.130;5.598;2024-01-06T01:40:27;5.70;1.00
23717;DHT22;22094;52.130;5.598;2024-01-06T01:42:53;4.80;1.00
23717;DHT22;22094;52.130;5.598;2024-01-06T01:45:19;4.80;1.00
23717;DHT22;22094;52.130;5.598;2024-01-06T01:47:44;4.70;1.00
23717;DHT22;22094;52.130;5.598;2024-01-06T01:50:12;4.60;1.00
23717;DHT22;22094;52.130;5.598;2024-01-06T01:52:38;4.60;99.90
23717;DHT22;22094;52.130;5.598;2024-01-06T01:55:05;4.50;99.90
23717;DHT22;22094;52.130;5.598;2024-01-06T01:57:31;4.80;99.90
23717;DHT22;22094;52.130;5.598;2024-01-06T01:59:57;4.60;99.90
23717;DHT22;22094;52.130;5.598;2024-01-06T02:02:23;4.60;99.90
23717;DHT22;22094;52.130;5.598;2024-01-06T02:04:48;4.60;99.90
23717;DHT22;22094;52.130;5.598;2024-01-06T02:07:14;4.50;99.90
23717;DHT22;22094;52.130;5.598;2024-01-06T02:09:40;4.50;99.90
23717;DHT22;22094;52.130;5.598;2024-01-06T02:12:06;4.50;99.90
23717;DHT22;22094;52.130;5.598;2024-01-06T02:14:31;4.50;99.90
23717;DHT22;22094;52.130;5.598;2024-01-06T02:16:58;4.50;99.90
23717;DHT22;22094;52.130;5.598;2024-01-06T02:19:23;4.50;99.90
23717;DHT22;22094;52.130;5.598;2024-01-06T02:21:52;4.60;99.90
23717;DHT22;22094;52.130;5.598;2024-01-06T02:24:18;4.50;99.90
23717;DHT22;22094;52.130;5.598;2024-01-06T02:26:44;4.70;99.90
23717;DHT22;22094;52.130;5.598;2024-01-06T02:29:09;4.50;99.90
23717;DHT22;22094;52.130;5.598;2024-01-06T02:31:35;4.50;99.90
23717;DHT22;22094;52.130;5.598;2024-01-06T02:34:00;4.50;99.90
23717;DHT22;22094;52.130;5.598;2024-01-06T02:36:26;4.50;99.90
23717;DHT22;22094;52.130;5.598;2024-01-06T02:38:52;4.40;99.90
23717;DHT22;22094;52.130;5.598;2024-01-06T02:41:17;4.40;99.90
23717;DHT22;22094;52.130;5.598;2024-01-06T02:43:43;4.70;99.90
23717;DHT22;22094;52.130;5.598;2024-01-06T02:46:08;4.40;99.90
23717;DHT22;22094;52.130;5.598;2024-01-06T02:48:34;4.40;1.00
23717;DHT22;22094;52.130;5.598;2024-01-06T02:50:59;4.40;1.00
23717;DHT22;22094;52.130;5.598;2024-01-06T02:53:25;4.40;1.00
23717;DHT22;22094;52.130;5.598;2024-01-06T02:55:50;4.50;1.00
23717;DHT22;22094;52.130;5.598;2024-01-06T02:58:16;4.40;1.00
23717;DHT22;22094;52.130;5.598;2024-01-06T03:00:42;4.50;1.00
23717;DHT22;22094;52.130;5.598;2024-01-06T03:03:07;4.50;1.00
23717;DHT22;22094;52.130;5.598;2024-01-06T03:05:33;4.50;1.00
23717;DHT22;22094;52.130;5.598;2024-01-06T03:07:58;4.40;1.00
23717;DHT22;22094;52.130;5.598;2024-01-06T03:10:24;4.40;1.00
23717;DHT22;22094;52.130;5.598;2024-01-06T03:12:50;4.50;1.00
23717;DHT22;22094;52.130;5.598;2024-01-06T03:15:15;4.40;1.00
23717;DHT22;22094;52.130;5.598;2024-01-06T03:17:41;4.50;1.00
23717;DHT22;22094;52.130;5.598;2024-01-06T03:20:07;4.50;1.00
23717;DHT22;22094;52.130;5.598;2024-01-06T03:22:33;4.40;1.00
23717;DHT22;22094;52.130;5.598;2024-01-06T03:24:58;4.50;1.00
23717;DHT22;22094;52.130;5.598;2024-01-06T03:27:24;4.40;1.00
23717;DHT22;22094;52.130;5.598;2024-01-06T03:29:50;4.40;1.00
23717;DHT22;22094;52.130;5.598;2024-01-06T03:32:15;4.40;1.00
23717;DHT22;22094;52.130;5.598;2024-01-06T03:34:41;4.40;1.00
23717;DHT22;22094;52.130;5.598;2024-01-06T03:37:07;4.40;99.90
23717;DHT22;22094;52.130;5.598;2024-01-06T03:39:32;4.30;99.90
23717;DHT22;22094;52.130;5.598;2024-01-06T03:41:59;4.30;99.90
23717;DHT22;22094;52.130;5.598;2024-01-06T03:44:24;4.30;99.90
23717;DHT22;22094;52.130;5.598;2024-01-06T03:46:50;4.20;99.90
23717;DHT22;22094;52.130;5.598;2024-01-06T03:49:16;4.20;99.90
23717;DHT22;22094;52.130;5.598;2024-01-06T03:51:43;4.30;1.00
23717;DHT22;22094;52.130;5.598;2024-01-06T03:54:09;4.30;1.00
23717;DHT22;22094;52.130;5.598;2024-01-06T03:56:34;4.20;99.90
23717;DHT22;22094;52.130;5.598;2024-01-06T03:59:00;4.20;99.90
23717;DHT22;22094;52.130;5.598;2024-01-06T04:01:26;4.40;99.90
23717;DHT22;22094;52.130;5.598;2024-01-06T04:03:51;4.10;99.90
23717;DHT22;22094;52.130;5.598;2024-01-06T04:06:17;4.80;99.90
23717;DHT22;22094;52.130;5.598;2024-01-06T04:08:45;4.10;99.90
23717;DHT22;22094;52.130;5.598;2024-01-06T04:11:10;4.10;99.90
23717;DHT22;22094;52.130;5.598;2024-01-06T04:13:36;4.10;99.90
23717;DHT22;22094;52.130;5.598;2024-01-06T04:16:02;4.10;1.00
23717;DHT22;22094;52.130;5.598;2024-01-06T04:18:27;4.00;1.00
23717;DHT22;22094;52.130;5.598;2024-01-06T04:20:53;4.00;1.00
23717;DHT22;22094;52.130;5.598;2024-01-06T04:23:19;4.00;1.00
23717;DHT22;22094;52.130;5.598;2024-01-06T04:25:44;4.00;1.00
23717;DHT22;22094;52.130;5.598;2024-01-06T04:28:10;4.00;1.00
23717;DHT22;22094;52.130;5.598;2024-01-06T04:30:35;3.90;1.00
23717;DHT22;22094;52.130;5.598;2024-01-06T04:33:01;3.90;1.00
23717;DHT22;22094;52.130;5.598;2024-01-06T04:35:26;3.90;1.00
23717;DHT22;22094;52.130;5.598;2024-01-06T04:37:52;3.80;1.00
23717;DHT22;22094;52.130;5.598;2024-01-06T04:40:18;3.70;1.00
23717;DHT22;22094;52.130;5.598;2024-01-06T04:42:43;3.70;1.00
23717;DHT22;22094;52.130;5.598;2024-01-06T04:45:09;3.70;1.00
23717;DHT22;22094;52.130;5.598;2024-01-06T04:47:35;3.60;1.00
23717;DHT22;22094;52.130;5.598;2024-01-06T04:50:00;3.60;1.00
23717;DHT22;22094;52.130;5.598;2024-01-06T04:52:26;3.60;1.00
23717;DHT22;22094;52.130;5.598;2024-01-06T04:54:51;3.60;1.00
23717;DHT22;22094;52.130;5.598;2024-01-06T04:57:17;3.60;1.00
23717;DHT22;22094;52.130;5.598;2024-01-06T04:59:43;3.50;1.00
23717;DHT22;22094;52.130;5.598;2024-01-06T05:02:08;3.50;1.00
23717;DHT22;22094;52.130;5.598;2024-01-06T05:04:34;3.50;1.00
23717;DHT22;22094;52.130;5.598;2024-01-06T05:07:00;3.50;1.00
23717;DHT22;22094;52.130;5.598;2024-01-06T05:09:25;3.50;1.00
23717;DHT22;22094;52.130;5.598;2024-01-06T05:11:51;3.50;1.00
23717;DHT22;22094;52.130;5.598;2024-01-06T05:14:16;3.50;1.00
23717;DHT22;22094;52.130;5.598;2024-01-06T05:16:42;3.40;1.00
23717;DHT22;22094;52.130;5.598;2024-01-06T05:19:08;3.40;99.90
23717;DHT22;22094;52.130;5.598;2024-01-06T05:21:34;3.40;99.90
23717;DHT22;22094;52.130;5.598;2024-01-06T05:24:00;3.40;71.30
23717;DHT22;22094;52.130;5.598;2024-01-06T05:26:26;3.30;1.00
23717;DHT22;22094;52.130;5.598;2024-01-06T05:28:52;3.30;99.90
23717;DHT22;22094;52.130;5.598;2024-01-06T05:31:18;3.30;1.00
23717;DHT22;22094;52.130;5.598;2024-01-06T05:33:43;3.30;99.90
23717;DHT22;22094;52.130;5.598;2024-01-06T05:36:09;3.30;1.00
23717;DHT22;22094;52.130;5.598;2024-01-06T05:38:36;3.30;1.00
23717;DHT22;22094;52.130;5.598;2024-01-06T05:41:02;3.30;47.30
23717;DHT22;22094;52.130;5.598;2024-01-06T05:43:28;3.30;99.90
23717;DHT22;22094;52.130;5.598;2024-01-06T05:45:53;3.30;1.00
23717;DHT22;22094;52.130;5.598;2024-01-06T05:48:19;3.30;99.90
23717;DHT22;22094;52.130;5.598;2024-01-06T05:50:44;3.20;99.90
23717;DHT22;22094;52.130;5.598;2024-01-06T05:53:10;3.10;99.90
23717;DHT22;22094;52.130;5.598;2024-01-06T05:55:36;3.10;99.90
23717;DHT22;22094;52.130;5.598;2024-01-06T05:58:01;3.10;1.00
23717;DHT22;22094;52.130;5.598;2024-01-06T06:00:27;3.10;1.00
23717;DHT22;22094;52.130;5.598;2024-01-06T06:02:53;3.10;1.00
23717;DHT22;22094;52.130;5.598;2024-01-06T06:05:18;3.10;99.20
23717;DHT22;22094;52.130;5.598;2024-01-06T06:07:45;3.10;20.20
23717;DHT22;22094;52.130;5.598;2024-01-06T06:10:11;3.00;1.00
23717;DHT22;22094;52.130;5.598;2024-01-06T06:12:37;3.00;99.90
23717;DHT22;22094;52.130;5.598;2024-01-06T06:15:04;3.00;99.90
23717;DHT22;22094;52.130;5.598;2024-01-06T06:17:30;3.10;99.90
23717;DHT22;22094;52.130;5.598;2024-01-06T06:19:57;3.10;99.90
23717;DHT22;22094;52.130;5.598;2024-01-06T06:22:23;3.00;99.90
23717;DHT22;22094;52.130;5.598;2024-01-06T06:24:49;3.00;99.90
23717;DHT22;22094;52.130;5.598;2024-01-06T06:27:14;3.00;99.90
23717;DHT22;22094;52.130;5.598;2024-01-06T06:29:40;3.10;86.70
23717;DHT22;22094;52.130;5.598;2024-01-06T06:32:06;3.00;1.00
23717;DHT22;22094;52.130;5.598;2024-01-06T06:34:31;3.00;1.00
23717;DHT22;22094;52.130;5.598;2024-01-06T06:36:57;3.00;1.00
23717;DHT22;22094;52.130;5.598;2024-01-06T06:39:24;3.00;33.60
23717;DHT22;22094;52.130;5.598;2024-01-06T06:41:49;3.00;7.10
23717;DHT22;22094;52.130;5.598;2024-01-06T06:44:15;3.00;70.00
23717;DHT22;22094;52.130;5.598;2024-01-06T06:46:40;3.00;1.00
23717;DHT22;22094;52.130;5.598;2024-01-06T06:49:06;3.70;77.00
23717;DHT22;22094;52.130;5.598;2024-01-06T06:51:31;3.00;1.00
23717;DHT22;22094;52.130;5.598;2024-01-06T06:53:57;3.10;99.90
23717;DHT22;22094;52.130;5.598;2024-01-06T06:56:23;3.10;99.90
23717;DHT22;22094;52.130;5.598;2024-01-06T06:58:49;3.10;1.00
23717;DHT22;22094;52.130;5.598;2024-01-06T07:01:15;3.00;1.00
23717;DHT22;22094;52.130;5.598;2024-01-06T07:03:41;3.00;1.00
23717;DHT22;22094;52.130;5.598;2024-01-06T07:06:07;3.30;1.00
23717;DHT22;22094;52.130;5.598;2024-01-06T07:08:33;3.00;1.00
23717;DHT22;22094;52.130;5.598;2024-01-06T07:10:58;3.20;1.00
23717;DHT22;22094;52.130;5.598;2024-01-06T07:13:24;3.20;1.00
23717;DHT22;22094;52.130;5.598;2024-01-06T07:15:49;3.00;1.00
23717;DHT22;22094;52.130;5.598;2024-01-06T07:18:15;3.00;27.50
23717;DHT22;22094;52.130;5.598;2024-01-06T07:20:41;3.00;65.70
23717;DHT22;22094;52.130;5.598;2024-01-06T07:23:06;3.10;99.90
23717;DHT22;22094;52.130;5.598;2024-01-06T07:25:32;3.00;1.40
23717;DHT22;22094;52.130;5.598;2024-01-06T07:27:58;3.00;99.90
23717;DHT22;22094;52.130;5.598;2024-01-06T07:30:23;2.90;46.10
23717;DHT22;22094;52.130;5.598;2024-01-06T07:32:49;2.90;4.60
23717;DHT22;22094;52.130;5.598;2024-01-06T07:35:16;2.90;41.60
23717;DHT22;22094;52.130;5.598;2024-01-06T07:37:42;2.90;1.00
23717;DHT22;22094;52.130;5.598;2024-01-06T07:40:08;3.80;1.00
23717;DHT22;22094;52.130;5.598;2024-01-06T07:42:33;3.00;1.00
23717;DHT22;22094;52.130;5.598;2024-01-06T07:44:59;3.90;1.00
23717;DHT22;22094;52.130;5.598;2024-01-06T07:47:34;2.90;1.00
23717;DHT22;22094;52.130;5.598;2024-01-06T07:50:00;3.60;99.90
23717;DHT22;22094;52.130;5.598;2024-01-06T07:52:26;3.30;1.00
23717;DHT22;22094;52.130;5.598;2024-01-06T07:54:51;2.90;1.00
23717;DHT22;22094;52.130;5.598;2024-01-06T07:57:17;3.40;99.90
23717;DHT22;22094;52.130;5.598;2024-01-06T07:59:42;4.00;99.90
23717;DHT22;22094;52.130;5.598;2024-01-06T08:02:09;3.30;99.90
23717;DHT22;22094;52.130;5.598;2024-01-06T08:04:35;2.90;1.00
23717;DHT22;22094;52.130;5.598;2024-01-06T08:07:01;2.90;1.00
23717;DHT22;22094;52.130;5.598;2024-01-06T08:09:27;3.00;1.00
23717;DHT22;22094;52.130;5.598;2024-01-06T08:11:52;3.00;99.90
23717;DHT22;22094;52.130;5.598;2024-01-06T08:14:18;3.00;99.90
23717;DHT22;22094;52.130;5.598;2024-01-06T08:16:44;3.00;99.90
23717;DHT22;22094;52.130;5.598;2024-01-06T08:19:10;3.20;99.90
23717;DHT22;22094;52.130;5.598;2024-01-06T08:21:35;3.00;1.00
23717;DHT22;22094;52.130;5.598;2024-01-06T08:24:01;3.10;99.90
23717;DHT22;22094;52.130;5.598;2024-01-06T08:26:27;3.10;1.00
23717;DHT22;22094;52.130;5.598;2024-01-06T08:28:53;3.10;1.00
23717;DHT22;22094;52.130;5.598;2024-01-06T08:31:18;3.10;99.90
23717;DHT22;22094;52.130;5.598;2024-01-06T08:33:44;3.10;1.00
23717;DHT22;22094;52.130;5.598;2024-01-06T08:36:10;3.10;1.00
23717;DHT22;22094;52.130;5.598;2024-01-06T08:38:36;3.20;1.00
23717;DHT22;22094;52.130;5.598;2024-01-06T08:41:01;3.20;99.90
23717;DHT22;22094;52.130;5.598;2024-01-06T08:43:27;3.20;1.00
23717;DHT22;22094;52.130;5.598;2024-01-06T08:45:53;3.20;1.00
23717;DHT22;22094;52.130;5.598;2024-01-06T08:48:18;3.20;1.00
23717;DHT22;22094;52.130;5.598;2024-01-06T08:50:44;3.30;1.00
23717;DHT22;22094;52.130;5.598;2024-01-06T08:53:11;3.80;1.00
23717;DHT22;22094;52.130;5.598;2024-01-06T08:55:36;3.30;99.90
23717;DHT22;22094;52.130;5.598;2024-01-06T08:58:02;3.20;1.00
23717;DHT22;22094;52.130;5.598;2024-01-06T09:00:28;3.20;1.00
23717;DHT22;22094;52.130;5.598;2024-01-06T09:02:53;3.30;99.90
23717;DHT22;22094;52.130;5.598;2024-01-06T09:05:19;6.70;1.00
23717;DHT22;22094;52.130;5.598;2024-01-06T09:07:44;3.40;1.00
23717;DHT22;22094;52.130;5.598;2024-01-06T09:10:18;3.30;99.90
23717;DHT22;22094;52.130;5.598;2024-01-06T09:12:43;3.30;99.90
23717;DHT22;22094;52.130;5.598;2024-01-06T09:15:09;3.30;1.00
23717;DHT22;22094;52.130;5.598;2024-01-06T09:17:34;3.40;70.90
23717;DHT22;22094;52.130;5.598;2024-01-06T09:20:00;3.30;99.90
23717;DHT22;22094;52.130;5.598;2024-01-06T09:22:26;3.40;1.00
23717;DHT22;22094;52.130;5.598;2024-01-06T09:24:52;3.40;1.00
23717;DHT22;22094;52.130;5.598;2024-01-06T09:27:18;3.50;1.00
23717;DHT22;22094;52.130;5.598;2024-01-06T09:29:44;3.60;1.00
23717;DHT22;22094;52.130;5.598;2024-01-06T09:32:10;3.50;99.90
23717;DHT22;22094;52.130;5.598;2024-01-06T09:34:35;3.50;1.00
23717;DHT22;22094;52.130;5.598;2024-01-06T09:39:27;3.40;1.00
23717;DHT22;22094;52.130;5.598;2024-01-06T09:41:52;3.60;1.00
23717;DHT22;22094;52.130;5.598;2024-01-06T09:44:18;3.30;42.80
23717;DHT22;22094;52.130;5.598;2024-01-06T09:46:44;3.30;1.00
23717;DHT22;22094;52.130;5.598;2024-01-06T09:49:10;4.00;1.00
23717;DHT22;22094;52.130;5.598;2024-01-06T09:51:39;3.40;99.90
23717;DHT22;22094;52.130;5.598;2024-01-06T09:54:08;3.50;59.10
23717;DHT22;22094;52.130;5.598;2024-01-06T09:56:34;3.60;99.90
23717;DHT22;22094;52.130;5.598;2024-01-06T09:59:00;3.50;1.00
23717;DHT22;22094;52.130;5.598;2024-01-06T10:01:26;3.40;1.00
23717;DHT22;22094;52.130;5.598;2024-01-06T10:03:51;3.40;99.90
23717;DHT22;22094;52.130;5.598;2024-01-06T10:06:17;3.40;1.00
23717;DHT22;22094;52.130;5.598;2024-01-06T10:08:51;3.40;1.00
23717;DHT22;22094;52.130;5.598;2024-01-06T10:11:18;3.40;16.20
23717;DHT22;22094;52.130;5.598;2024-01-06T10:13:44;3.40;1.00
23717;DHT22;22094;52.130;5.598;2024-01-06T10:16:09;3.40;49.90
23717;DHT22;22094;52.130;5.598;2024-01-06T10:18:35;3.40;44.40
23717;DHT22;22094;52.130;5.598;2024-01-06T10:21:04;3.40;1.00
23717;DHT22;22094;52.130;5.598;2024-01-06T10:23:33;3.50;99.90
23717;DHT22;22094;52.130;5.598;2024-01-06T10:25:59;3.40;1.00
23717;DHT22;22094;52.130;5.598;2024-01-06T10:28:25;3.40;99.90
23717;DHT22;22094;52.130;5.598;2024-01-06T10:30:54;3.30;99.90
23717;DHT22;22094;52.130;5.598;2024-01-06T10:33:21;3.40;1.00
23717;DHT22;22094;52.130;5.598;2024-01-06T10:35:48;3.40;99.90
23717;DHT22;22094;52.130;5.598;2024-01-06T10:38:14;3.90;1.00
23717;DHT22;22094;52.130;5.598;2024-01-06T10:41:02;3.30;1.00
23717;DHT22;22094;52.130;5.598;2024-01-06T10:43:33;3.40;81.30
23717;DHT22;22094;52.130;5.598;2024-01-06T10:46:04;3.70;7.60
23717;DHT22;22094;52.130;5.598;2024-01-06T10:48:34;0.50;1.00
23717;DHT22;22094;52.130;5.598;2024-01-06T10:51:00;3.60;1.00
23717;DHT22;22094;52.130;5.598;2024-01-06T10:53:27;3.30;1.00
23717;DHT22;22094;52.130;5.598;2024-01-06T10:55:53;3.60;1.00
23717;DHT22;22094;52.130;5.598;2024-01-06T10:58:19;3.50;1.00
23717;DHT22;22094;52.130;5.598;2024-01-06T11:00:45;3.60;1.00
23717;DHT22;22094;52.130;5.598;2024-01-06T11:03:13;3.60;64.10
23717;DHT22;22094;52.130;5.598;2024-01-06T11:05:41;4.70;39.10
23717;DHT22;22094;52.130;5.598;2024-01-06T11:08:08;3.40;99.90
23717;DHT22;22094;52.130;5.598;2024-01-06T11:10:36;3.70;99.90
23717;DHT22;22094;52.130;5.598;2024-01-06T11:13:10;3.60;1.00
23717;DHT22;22094;52.130;5.598;2024-01-06T11:15:49;1.20;1.00
23717;DHT22;22094;52.130;5.598;2024-01-06T11:18:39;3.80;1.00
23717;DHT22;22094;52.130;5.598;2024-01-06T11:23:40;3.80;99.90
23717;DHT22;22094;52.130;5.598;2024-01-06T11:26:07;3.70;99.90
23717;DHT22;22094;52.130;5.598;2024-01-06T11:28:46;3.60;1.00
23717;DHT22;22094;52.130;5.598;2024-01-06T11:31:12;3.80;1.00
23717;DHT22;22094;52.130;5.598;2024-01-06T11:33:42;3.70;1.00
23717;DHT22;22094;52.130;5.598;2024-01-06T11:36:09;3.90;1.00
23717;DHT22;22094;52.130;5.598;2024-01-06T11:38:38;3.70;1.00
23717;DHT22;22094;52.130;5.598;2024-01-06T11:41:07;3.70;1.00
23717;DHT22;22094;52.130;5.598;2024-01-06T11:43:34;3.70;99.90
23717;DHT22;22094;52.130;5.598;2024-01-06T11:46:00;3.60;99.90
23717;DHT22;22094;52.130;5.598;2024-01-06T11:48:29;3.60;1.00
23717;DHT22;22094;52.130;5.598;2024-01-06T11:50:57;3.50;99.90
23717;DHT22;22094;52.130;5.598;2024-01-06T11:53:26;3.60;1.00
23717;DHT22;22094;52.130;5.598;2024-01-06T11:55:52;3.60;1.00
23717;DHT22;22094;52.130;5.598;2024-01-06T12:00:44;3.50;1.00
23717;DHT22;22094;52.130;5.598;2024-01-06T12:03:19;3.60;1.00
23717;DHT22;22094;52.130;5.598;2024-01-06T12:05:45;3.60;1.00
23717;DHT22;22094;52.130;5.598;2024-01-06T12:08:11;3.50;99.90
23717;DHT22;22094;52.130;5.598;2024-01-06T12:10:36;3.60;1.00
23717;DHT22;22094;52.130;5.598;2024-01-06T12:13:06;3.60;1.00
23717;DHT22;22094;52.130;5.598;2024-01-06T12:15:34;3.60;1.00
23717;DHT22;22094;52.130;5.598;2024-01-06T12:18:03;3.50;1.00
23717;DHT22;22094;52.130;5.598;2024-01-06T12:22:55;3.60;1.00
23717;DHT22;22094;52.130;5.598;2024-01-06T12:25:22;4.00;1.00
23717;DHT22;22094;52.130;5.598;2024-01-06T12:27:48;3.60;1.00
23717;DHT22;22094;52.130;5.598;2024-01-06T12:30:15;3.50;1.00
23717;DHT22;22094;52.130;5.598;2024-01-06T12:32:43;3.60;1.00
23717;DHT22;22094;52.130;5.598;2024-01-06T12:35:09;4.80;1.00
23717;DHT22;22094;52.130;5.598;2024-01-06T12:37:35;3.70;1.00
23717;DHT22;22094;52.130;5.598;2024-01-06T12:40:02;3.60;1.00
23717;DHT22;22094;52.130;5.598;2024-01-06T12:42:27;3.80;1.00
23717;DHT22;22094;52.130;5.598;2024-01-06T12:47:19;3.50;1.00
23717;DHT22;22094;52.130;5.598;2024-01-06T12:49:44;3.70;1.00
23717;DHT22;22094;52.130;5.598;2024-01-06T12:52:11;3.70;1.00
23717;DHT22;22094;52.130;5.598;2024-01-06T12:54:37;3.50;1.00
23717;DHT22;22094;52.130;5.598;2024-01-06T12:57:02;3.50;49.80
23717;DHT22;22094;52.130;5.598;2024-01-06T12:59:28;3.50;99.90
23717;DHT22;22094;52.130;5.598;2024-01-06T13:01:55;3.50;1.00
23717;DHT22;22094;52.130;5.598;2024-01-06T13:04:21;3.50;1.00
23717;DHT22;22094;52.130;5.598;2024-01-06T13:06:47;3.50;1.00
23717;DHT22;22094;52.130;5.598;2024-01-06T13:09:14;3.50;1.00
23717;DHT22;22094;52.130;5.598;2024-01-06T13:11:42;3.50;1.00
23717;DHT22;22094;52.130;5.598;2024-01-06T13:14:08;3.60;1.00
23717;DHT22;22094;52.130;5.598;2024-01-06T13:16:33;3.50;1.00
23717;DHT22;22094;52.130;5.598;2024-01-06T13:19:00;3.40;1.00
23717;DHT22;22094;52.130;5.598;2024-01-06T13:21:26;4.10;1.00
23717;DHT22;22094;52.130;5.598;2024-01-06T13:23:54;3.50;1.00
23717;DHT22;22094;52.130;5.598;2024-01-06T13:26:25;3.40;1.00
23717;DHT22;22094;52.130;5.598;2024-01-06T13:28:50;3.50;1.00
23717;DHT22;22094;52.130;5.598;2024-01-06T13:31:16;3.40;1.00
23717;DHT22;22094;52.130;5.598;2024-01-06T13:33:41;3.40;1.00
23717;DHT22;22094;52.130;5.598;2024-01-06T13:36:07;3.40;1.00
23717;DHT22;22094;52.130;5.598;2024-01-06T13:38:32;3.40;1.00
23717;DHT22;22094;52.130;5.598;2024-01-06T13:40:58;3.40;1.00
23717;DHT22;22094;52.130;5.598;2024-01-06T13:43:24;3.40;1.00
23717;DHT22;22094;52.130;5.598;2024-01-06T13:45:49;3.60;99.90
23717;DHT22;22094;52.130;5.598;2024-01-06T13:48:15;4.10;1.00
23717;DHT22;22094;52.130;5.598;2024-01-06T13:50:41;4.30;99.90
23717;DHT22;22094;52.130;5.598;2024-01-06T13:53:06;3.40;1.00
23717;DHT22;22094;52.130;5.598;2024-01-06T13:55:32;3.80;99.90
23717;DHT22;22094;52.130;5.598;2024-01-06T13:58:01;3.30;1.00
23717;DHT22;22094;52.130;5.598;2024-01-06T14:00:27;4.10;1.00
23717;DHT22;22094;52.130;5.598;2024-01-06T14:02:53;3.30;1.00
23717;DHT22;22094;52.130;5.598;2024-01-06T14:05:19;3.30;1.00
23717;DHT22;22094;52.130;5.598;2024-01-06T14:07:45;3.30;38.50
23717;DHT22;22094;52.130;5.598;2024-01-06T14:10:13;3.20;33.90
23717;DHT22;22094;52.130;5.598;2024-01-06T14:12:40;3.20;99.90
23717;DHT22;22094;52.130;5.598;2024-01-06T14:15:06;3.20;1.00
23717;DHT22;22094;52.130;5.598;2024-01-06T14:17:32;3.20;99.90
23717;DHT22;22094;52.130;5.598;2024-01-06T14:19:58;3.20;1.00
23717;DHT22;22094;52.130;5.598;2024-01-06T14:22:23;3.20;1.00
23717;DHT22;22094;52.130;5.598;2024-01-06T14:24:49;3.20;1.00
23717;DHT22;22094;52.130;5.598;2024-01-06T14:27:15;3.20;1.00
23717;DHT22;22094;52.130;5.598;2024-01-06T14:29:41;3.20;1.00
23717;DHT22;22094;52.130;5.598;2024-01-06T14:32:07;3.20;1.00
23717;DHT22;22094;52.130;5.598;2024-01-06T14:34:32;3.20;99.90
23717;DHT22;22094;52.130;5.598;2024-01-06T14:36:59;3.20;99.90
23717;DHT22;22094;52.130;5.598;2024-01-06T14:39:24;3.20;99.90
23717;DHT22;22094;52.130;5.598;2024-01-06T14:41:50;3.20;99.90
23717;DHT22;22094;52.130;5.598;2024-01-06T14:44:17;3.20;1.00
23717;DHT22;22094;52.130;5.598;2024-01-06T14:46:45;3.20;37.50
23717;DHT22;22094;52.130;5.598;2024-01-06T14:49:11;3.20;99.90
23717;DHT22;22094;52.130;5.598;2024-01-06T14:51:37;3.50;99.90
23717;DHT22;22094;52.130;5.598;2024-01-06T14:54:03;3.30;97.20
23717;DHT22;22094;52.130;5.598;2024-01-06T14:56:29;3.20;99.90
23717;DHT22;22094;52.130;5.598;2024-01-06T14:58:56;3.20;1.00
23717;DHT22;22094;52.130;5.598;2024-01-06T15:01:21;3.30;1.00
23717;DHT22;22094;52.130;5.598;2024-01-06T15:03:47;3.20;1.00
23717;DHT22;22094;52.130;5.598;2024-01-06T15:06:13;3.20;6.70
23717;DHT22;22094;52.130;5.598;2024-01-06T15:08:39;3.90;1.00
23717;DHT22;22094;52.130;5.598;2024-01-06T15:11:04;3.60;99.90
23717;DHT22;22094;52.130;5.598;2024-01-06T15:13:32;3.20;99.90
23717;DHT22;22094;52.130;5.598;2024-01-06T15:15:57;3.20;99.90
23717;DHT22;22094;52.130;5.598;2024-01-06T15:18:23;3.20;99.90
23717;DHT22;22094;52.130;5.598;2024-01-06T15:20:49;3.20;99.90
23717;DHT22;22094;52.130;5.598;2024-01-06T15:23:15;3.20;1.00
23717;DHT22;22094;52.130;5.598;2024-01-06T15:25:44;3.20;1.00
23717;DHT22;22094;52.130;5.598;2024-01-06T15:28:09;3.20;1.00
23717;DHT22;22094;52.130;5.598;2024-01-06T15:30:35;4.00;99.90
23717;DHT22;22094;52.130;5.598;2024-01-06T15:33:00;3.60;99.90
23717;DHT22;22094;52.130;5.598;2024-01-06T15:35:26;3.20;99.90
23717;DHT22;22094;52.130;5.598;2024-01-06T15:37:52;3.20;99.90
23717;DHT22;22094;52.130;5.598;2024-01-06T15:40:17;3.60;99.90
23717;DHT22;22094;52.130;5.598;2024-01-06T15:42:43;3.70;99.90
23717;DHT22;22094;52.130;5.598;2024-01-06T15:45:09;3.60;99.90
23717;DHT22;22094;52.130;5.598;2024-01-06T15:47:37;4.50;99.90
23717;DHT22;22094;52.130;5.598;2024-01-06T15:50:03;3.20;99.90
23717;DHT22;22094;52.130;5.598;2024-01-06T15:52:29;3.20;99.90
23717;DHT22;22094;52.130;5.598;2024-01-06T15:54:55;3.60;99.90
23717;DHT22;22094;52.130;5.598;2024-01-06T15:57:21;2.80;99.90
23717;DHT22;22094;52.130;5.598;2024-01-06T15:59:47;3.20;1.00